Cologne, Texas
Current Conditions -  °F | °C
As of 1:51 AM on Thursday 29 Jan 2015 (Local Time) from KVCT Reporting Station
Moderate Fog Moderate Fog  
Wind Chill: 53°   Ceiling: 200
Heat Index: 53°   Visibility: 0.25mi
Dew Point: 52°   Wind: 5mph
Humidity: 96%   Direction: 170°S
Pressure: 30.16"   Gusts: NA
Location:  28.7094°N, 97.0351°W
Report Text: KVCT 290751Z AUTO 17004KT 1/4SM FG VV002 12/11 A3016 RMK AO2 SLP212 T01170111 $
Loading
Personal Weather Stations






























Interactive Weather Map New forecast layout! Learn more

10-Day Weather Forecast

Advertisements
Track Severe Weather on mobile